Time;durP1;ratioP1;P1;durP2;ratioP2;P2;SDS_P1;SDS_P2;PMS_P1;PMS_P2;Temp;Humidity;BMP_temperature;BMP_pressure;BME280_temperature;BME280_humidity;BME280_pressure;Samples;Min_cycle;Max_cycle;Signal;HPM_P1;HPM_P2
2022/06/15 00:00:05;;;;;;;6.88;3.97;;;;;;;14.70;64.47;101893.06;5040108;28;20020;-57
2022/06/15 00:12:36;;;;;;;7.88;4.25;;;;;;;14.59;64.32;101893.47;5044336;28;20399;-57
2022/06/15 00:15:02;;;;;;;7.63;4.18;;;;;;;14.47;64.73;101881.47;5038675;28;20025;-58
2022/06/15 00:17:27;;;;;;;11.52;4.47;;;;;;;14.46;64.64;101887.81;5037593;28;20029;-56
2022/06/15 00:19:52;;;;;;;6.95;4.38;;;;;;;14.46;65.04;101888.66;5041356;28;20788;-57
2022/06/15 00:22:17;;;;;;;7.43;4.18;;;;;;;14.41;65.26;101882.94;5038119;28;20040;-59
2022/06/15 00:35:07;;;;;;;9.50;4.55;;;;;;;14.27;65.97;101880.97;5038928;28;20396;-58
2022/06/15 00:37:32;;;;;;;8.27;4.38;;;;;;;14.21;66.10;101878.97;5025331;28;20446;-57
2022/06/15 00:39:57;;;;;;;9.23;4.75;;;;;;;14.24;66.32;101878.63;5039316;28;20024;-58
2022/06/15 00:42:28;;;;;;;7.28;4.55;;;;;;;14.17;66.53;101883.00;5037959;28;20079;-57
2022/06/15 00:44:54;;;;;;;12.18;4.50;;;;;;;14.20;66.46;101883.47;5040044;28;20029;-58
2022/06/15 00:47:27;;;;;;;12.70;5.00;;;;;;;14.18;66.72;101873.97;5038326;28;20112;-57
2022/06/15 00:49:59;;;;;;;11.27;4.32;;;;;;;14.16;66.37;101870.59;5037418;28;20036;-57
2022/06/15 00:52:33;;;;;;;7.72;4.57;;;;;;;14.09;66.58;101866.94;5040183;28;20032;-56
2022/06/15 00:55:03;;;;;;;7.35;4.47;;;;;;;14.15;66.51;101871.59;5036973;28;20063;-57
2022/06/15 00:57:29;;;;;;;8.52;4.28;;;;;;;14.14;66.90;101860.09;5039070;28;20571;-56
2022/06/15 00:59:56;;;;;;;7.65;4.60;;;;;;;14.12;66.81;101863.94;5038513;28;20083;-57
2022/06/15 01:02:23;;;;;;;7.57;4.15;;;;;;;14.08;66.83;101865.28;5039171;28;20039;-57
2022/06/15 01:04:54;;;;;;;7.85;4.35;;;;;;;13.93;67.12;101868.63;5040462;28;20031;-57
2022/06/15 01:07:52;;;;;;;10.93;4.78;;;;;;;13.97;67.93;101862.97;5015896;28;20851;-57
2022/06/15 01:10:39;;;;;;;6.35;4.70;;;;;;;13.95;68.07;101855.94;5039003;28;20582;-57
2022/06/15 01:13:43;;;;;;;7.70;4.50;;;;;;;13.95;68.27;101861.28;5040131;28;20048;-57
2022/06/15 01:16:26;;;;;;;8.88;5.10;;;;;;;13.99;68.17;101860.94;5037075;28;20396;-57
2022/06/15 01:19:04;;;;;;;7.43;4.80;;;;;;;13.98;68.06;101854.78;5037507;28;20629;-57
2022/06/15 01:21:50;;;;;;;8.65;5.00;;;;;;;14.01;68.39;101848.25;5042103;28;20030;-55
2022/06/15 01:24:39;;;;;;;9.50;4.60;;;;;;;13.95;68.60;101857.78;5037744;28;20033;-56
2022/06/15 01:27:22;;;;;;;6.32;4.93;;;;;;;13.89;68.36;101861.13;5037860;28;20251;-56
2022/06/15 01:30:06;;;;;;;9.07;4.90;;;;;;;13.85;68.63;101852.59;5041611;28;20064;-56
2022/06/15 01:32:39;;;;;;;10.20;5.15;;;;;;;13.80;69.21;101859.44;5042978;28;20063;-57
2022/06/15 01:35:10;;;;;;;11.07;4.90;;;;;;;13.70;68.99;101850.78;5040217;28;20055;-57
2022/06/15 01:37:56;;;;;;;9.20;5.15;;;;;;;13.71;69.07;101853.28;5038967;28;20087;-57
2022/06/15 01:40:36;;;;;;;8.13;5.28;;;;;;;13.67;69.28;101848.44;5036968;28;20029;-60
2022/06/15 01:43:15;;;;;;;9.30;4.75;;;;;;;13.62;69.63;101848.94;5037113;28;20036;-57
2022/06/15 01:45:42;;;;;;;6.25;4.70;;;;;;;13.55;69.25;101843.41;5041201;28;20044;-56
2022/06/15 01:48:11;;;;;;;6.25;4.60;;;;;;;13.37;69.94;101848.06;5043499;28;20036;-58
2022/06/15 01:50:42;;;;;;;7.72;4.93;;;;;;;13.39;70.07;101853.25;5042690;28;20021;-57
2022/06/15 01:53:20;;;;;;;9.13;5.05;;;;;;;13.30;70.43;101844.41;5043312;28;20024;-58
2022/06/15 01:55:52;;;;;;;7.05;5.28;;;;;;;13.36;70.48;101848.22;5039392;28;20490;-59
2022/06/15 01:58:22;;;;;;;8.32;4.60;;;;;;;13.20;70.32;101833.84;5039063;28;20072;-56
2022/06/15 02:00:52;;;;;;;;;;;;;;;13.43;70.24;101836.72;5040248;28;20017;-57
2022/06/15 02:03:33;;;;;;;6.53;5.28;;;;;;;13.27;70.40;101840.19;5042925;28;20812;-57
2022/06/15 02:06:33;;;;;;;8.85;5.20;;;;;;;13.30;70.61;101841.72;5043742;28;20510;-57
2022/06/15 02:09:15;;;;;;;10.80;5.28;;;;;;;13.20;70.72;101839.19;5023990;28;20675;-57
2022/06/15 02:11:42;;;;;;;8.48;5.07;;;;;;;13.11;71.05;101823.31;5037414;28;20056;-57
2022/06/15 02:14:18;;;;;;;7.43;5.13;;;;;;;13.09;70.98;101830.63;5042951;28;20106;-57
2022/06/15 02:16:49;;;;;;;8.30;5.18;;;;;;;13.05;70.87;101824.78;5039943;28;20029;-57
2022/06/15 02:19:19;;;;;;;9.13;5.72;;;;;;;13.00;71.38;101819.09;5043668;28;20045;-56
2022/06/15 02:21:48;;;;;;;8.38;5.00;;;;;;;13.07;71.61;101828.13;5038133;28;20021;-56
2022/06/15 02:24:17;;;;;;;9.85;5.15;;;;;;;13.10;71.73;101824.31;5041597;28;20039;-56
2022/06/15 02:26:42;;;;;;;7.20;4.90;;;;;;;13.13;71.53;101819.47;5037586;28;20067;-57
2022/06/15 02:29:13;;;;;;;6.88;5.13;;;;;;;13.12;71.63;101827.63;5041385;28;20048;-57
2022/06/15 02:31:41;;;;;;;6.28;5.00;;;;;;;13.14;71.43;101818.47;5039690;28;20035;-57
2022/06/15 02:34:07;;;;;;;8.75;5.53;;;;;;;13.06;71.57;101815.78;5043771;28;20119;-57
2022/06/15 02:36:33;;;;;;;7.43;5.20;;;;;;;13.15;71.71;101822.81;5043916;28;20047;-58
2022/06/15 02:39:00;;;;;;;8.48;5.30;;;;;;;13.12;72.14;101820.47;5040564;28;20032;-57
2022/06/15 02:41:25;;;;;;;8.13;5.60;;;;;;;13.04;71.93;101817.78;5040247;28;20060;-57
2022/06/15 02:43:55;;;;;;;9.15;5.95;;;;;;;13.00;72.00;101819.09;5042417;28;20028;-57
2022/06/15 02:46:23;;;;;;;5.90;5.03;;;;;;;13.05;71.89;101819.47;5041532;28;20033;-57
2022/06/15 02:48:50;;;;;;;7.13;4.88;;;;;;;12.94;71.47;101814.41;5040845;28;20039;-57
2022/06/15 02:51:27;;;;;;;7.22;5.15;;;;;;;12.97;72.32;101816.75;5038542;28;20044;-58
2022/06/15 02:53:56;;;;;;;8.27;4.90;;;;;;;12.86;71.97;101812.56;5037108;28;20515;-57
2022/06/15 02:56:23;;;;;;;7.45;4.80;;;;;;;12.88;71.85;101809.72;5048650;28;20033;-57
2022/06/15 02:58:52;;;;;;;8.50;5.03;;;;;;;12.90;72.10;101810.41;5046595;28;20032;-57
2022/06/15 03:01:18;;;;;;;8.02;5.50;;;;;;;12.90;72.28;101811.25;5047346;28;20020;-57
2022/06/15 03:03:43;;;;;;;10.25;5.22;;;;;;;12.83;72.18;101804.91;5056954;28;20021;-58
2022/06/15 03:06:15;;;;;;;8.35;5.47;;;;;;;12.87;72.77;101813.41;5048691;28;20036;-56
2022/06/15 03:08:40;;;;;;;5.90;4.50;;;;;;;12.87;72.29;101810.72;5057492;28;20392;-57
2022/06/15 03:11:06;;;;;;;8.50;5.00;;;;;;;12.82;72.35;101807.72;5046293;28;20022;-58
2022/06/15 03:13:31;;;;;;;11.27;4.90;;;;;;;12.82;72.34;101807.72;5052234;28;20132;-57
2022/06/15 03:15:58;;;;;;;7.63;4.88;;;;;;;12.76;72.48;101811.03;5050532;28;20020;-57
2022/06/15 03:18:27;;;;;;;8.88;5.07;;;;;;;12.73;72.52;101811.38;5047326;28;20108;-57
2022/06/15 03:20:57;;;;;;;7.53;5.15;;;;;;;12.67;72.43;101808.31;5048632;28;20033;-57
2022/06/15 03:23:22;;;;;;;8.85;5.03;;;;;;;12.70;72.58;101800.00;5059229;28;20028;-57
2022/06/15 03:25:59;;;;;;;13.90;5.35;;;;;;;12.70;72.91;101810.66;5046692;28;20040;-56
2022/06/15 03:28:25;;;;;;;9.32;5.03;;;;;;;12.74;73.12;101811.19;5046217;28;20136;-57
2022/06/15 03:30:51;;;;;;;12.88;5.13;;;;;;;12.74;73.18;101807.69;5057001;28;20090;-56
2022/06/15 03:33:17;;;;;;;9.30;5.00;;;;;;;12.72;72.69;101802.50;5056620;28;20307;-56
2022/06/15 03:35:42;;;;;;;9.38;5.10;;;;;;;12.71;72.83;101808.81;5047267;28;20107;-57
2022/06/15 03:38:08;;;;;;;10.00;5.05;;;;;;;12.75;73.23;101807.53;5050238;28;20025;-56
2022/06/15 03:40:35;;;;;;;8.65;5.30;;;;;;;12.76;73.38;101809.22;5042290;28;21138;-57
2022/06/15 03:43:01;;;;;;;9.52;5.07;;;;;;;12.74;73.02;101805.03;5039725;28;20031;-56
2022/06/15 03:45:27;;;;;;;10.32;5.45;;;;;;;12.78;73.25;101811.72;5042806;28;20029;-57
2022/06/15 03:47:55;;;;;;;10.05;5.18;;;;;;;12.78;73.39;101815.22;5040649;28;20029;-56
2022/06/15 03:50:22;;;;;;;7.80;5.22;;;;;;;12.83;73.38;101815.56;5040693;28;20029;-54
2022/06/15 03:52:48;;;;;;;11.10;5.22;;;;;;;12.82;73.36;101816.56;5042633;28;20029;-56
2022/06/15 03:55:13;;;;;;;9.20;5.40;;;;;;;12.77;73.41;101813.53;5040999;28;20039;-56
2022/06/15 03:57:38;;;;;;;7.10;4.85;;;;;;;12.74;73.06;101816.53;5039014;28;20031;-56
2022/06/15 04:00:05;;;;;;;10.40;5.30;;;;;;;12.79;73.20;101816.88;5037753;28;20029;-57
2022/06/15 04:02:30;;;;;;;11.27;5.25;;;;;;;12.82;73.46;101815.72;5042325;28;20035;-57
2022/06/15 04:04:55;;;;;;;10.90;5.40;;;;;;;12.84;73.43;101811.06;5040252;28;20396;-57
2022/06/15 04:10:05;;;;;;;11.05;5.82;;;;;;;12.85;73.35;101815.38;5057203;28;20043;-57
2022/06/15 04:12:30;;;;;;;7.47;5.07;;;;;;;12.86;73.38;101819.72;5047725;28;20032;-57
2022/06/15 04:14:55;;;;;;;9.25;5.63;;;;;;;12.88;73.73;101823.06;5047045;28;20166;-59
2022/06/15 04:17:21;;;;;;;11.02;5.65;;;;;;;12.91;73.82;101825.41;5048327;28;20444;-57
2022/06/15 04:20:31;;;;;;;11.70;5.45;;;;;;;12.89;73.50;101830.91;5055454;28;20069;-57
2022/06/15 04:22:35;;;;;;;9.93;5.60;;;;;;;12.93;73.65;101818.91;5056456;28;20131;-57
2022/06/15 04:25:00;;;;;;;13.07;5.53;;;;;;;12.96;73.80;101815.09;5054883;28;20088;-57
2022/06/15 04:27:26;;;;;;;12.02;5.75;;;;;;;12.97;73.40;101811.41;5050349;28;20036;-56
2022/06/15 04:29:51;;;;;;;10.73;6.03;;;;;;;12.99;73.96;101812.09;5056459;28;20362;-57
2022/06/15 04:32:16;;;;;;;8.48;5.93;;;;;;;13.05;73.82;101819.47;5038885;28;20028;-57
2022/06/15 04:34:42;;;;;;;10.57;5.85;;;;;;;13.06;73.83;101818.47;5044843;28;20028;-57
2022/06/15 04:37:07;;;;;;;15.13;5.75;;;;;;;13.09;74.09;101818.13;5036098;28;20021;-56
2022/06/15 04:39:32;;;;;;;10.27;5.97;;;;;;;13.15;73.55;101817.47;5040915;28;20384;-57
2022/06/15 04:41:57;;;;;;;13.13;6.63;;;;;;;13.19;73.82;101820.69;5038959;28;20055;-56
2022/06/15 04:44:23;;;;;;;12.95;6.40;;;;;;;13.16;73.90;101819.16;5041282;28;20510;-57
2022/06/15 04:46:48;;;;;;;15.07;6.50;;;;;;;13.24;73.91;101821.84;5042552;28;20056;-57
2022/06/15 04:49:14;;;;;;;12.82;6.35;;;;;;;13.29;73.96;101816.84;5040233;28;20025;-56
2022/06/15 04:51:41;;;;;;;12.63;6.28;;;;;;;13.36;73.88;101821.56;5038113;28;20396;-57
2022/06/15 04:54:09;;;;;;;10.02;6.43;;;;;;;13.43;73.64;101830.56;5038765;28;20059;-57
2022/06/15 04:56:36;;;;;;;12.15;6.05;;;;;;;13.53;73.83;101825.91;5040857;28;20385;-57
2022/06/15 04:59:02;;;;;;;10.43;6.20;;;;;;;13.59;73.33;101826.09;5040064;28;20666;-57
2022/06/15 05:01:27;;;;;;;10.75;6.60;;;;;;;13.66;73.77;101826.25;5038656;28;20045;-57
2022/06/15 05:03:53;;;;;;;14.75;6.47;;;;;;;13.76;73.42;101828.75;5040653;28;20064;-57
2022/06/15 05:06:21;;;;;;;9.80;6.32;;;;;;;13.84;73.17;101828.72;5038943;28;20400;-57
2022/06/15 05:08:46;;;;;;;13.63;6.70;;;;;;;13.92;73.32;101826.91;5041682;28;20023;-58
2022/06/15 05:11:11;;;;;;;12.73;6.70;;;;;;;14.00;73.31;101826.06;5035606;28;20123;-57
2022/06/15 05:13:37;;;;;;;10.57;6.75;;;;;;;14.09;73.34;101824.22;5037670;28;20036;-57
2022/06/15 05:16:02;;;;;;;9.07;6.63;;;;;;;14.18;72.91;101826.72;5041183;28;20408;-57
2022/06/15 05:18:27;;;;;;;10.27;6.43;;;;;;;14.24;73.07;101831.38;5037032;28;20021;-57
2022/06/15 05:20:53;;;;;;;10.68;6.80;;;;;;;14.34;72.79;101830.34;5039444;28;20098;-57
2022/06/15 05:23:19;;;;;;;11.65;6.90;;;;;;;14.42;72.81;101835.66;5031855;28;20028;-57
2022/06/15 05:25:44;;;;;;;12.38;7.10;;;;;;;14.51;72.18;101832.00;5039063;28;20025;-57
2022/06/15 05:28:12;;;;;;;11.20;6.63;;;;;;;14.55;72.38;101825.31;5036652;28;20032;-57
2022/06/15 05:30:38;;;;;;;15.48;6.90;;;;;;;14.64;72.15;101823.44;5039093;28;20082;-57
2022/06/15 05:33:04;;;;;;;11.70;7.25;;;;;;;14.75;72.25;101825.75;5048008;28;20024;-56
2022/06/15 05:35:30;;;;;;;16.75;7.38;;;;;;;14.82;72.31;101824.84;5039725;28;20021;-57
2022/06/15 05:37:55;;;;;;;10.32;7.03;;;;;;;14.94;72.32;101827.13;5038747;28;20571;-56
2022/06/15 05:40:21;;;;;;;13.10;7.38;;;;;;;15.00;72.32;101823.75;5040315;28;20480;-57
2022/06/15 05:42:46;;;;;;;11.75;7.03;;;;;;;15.08;71.82;101826.41;5042943;28;20021;-56
2022/06/15 05:45:12;;;;;;;11.75;6.80;;;;;;;15.16;71.34;101824.50;5037471;28;20068;-57
2022/06/15 05:47:37;;;;;;;11.35;7.13;;;;;;;15.24;71.45;101833.50;5037924;28;20025;-56
2022/06/15 05:50:03;;;;;;;13.88;7.65;;;;;;;15.29;71.63;101821.25;5036775;28;20059;-57
2022/06/15 05:52:28;;;;;;;13.98;7.63;;;;;;;15.39;71.29;101839.75;5039994;28;20500;-56
2022/06/15 05:54:54;;;;;;;9.80;6.93;;;;;;;15.49;70.72;101830.47;5041574;28;20121;-56
2022/06/15 05:57:22;;;;;;;12.70;7.00;;;;;;;15.58;70.55;101831.25;5037743;28;20459;-55
2022/06/15 05:59:48;;;;;;;11.70;7.20;;;;;;;15.65;70.06;101832.25;5041676;28;20029;-55
2022/06/15 06:02:16;;;;;;;16.17;7.80;;;;;;;15.71;70.19;101830.69;5036510;28;20049;-57
2022/06/15 06:04:41;;;;;;;12.27;7.25;;;;;;;15.77;70.00;101838.81;5042085;28;20044;-56
2022/06/15 06:07:08;;;;;;;10.82;7.75;;;;;;;15.83;70.08;101837.25;5039286;28;20028;-57
2022/06/15 06:09:34;;;;;;;13.98;7.78;;;;;;;15.85;69.42;101835.22;5040210;28;20025;-57
2022/06/15 06:11:59;;;;;;;13.48;7.65;;;;;;;15.92;69.38;101830.84;5039289;28;20039;-57
2022/06/15 06:14:24;;;;;;;13.25;7.60;;;;;;;15.96;69.17;101836.66;5040867;28;20060;-53
2022/06/15 06:16:50;;;;;;;14.48;7.40;;;;;;;16.03;68.89;101833.06;5038501;28;20039;-54
2022/06/15 06:19:15;;;;;;;13.32;7.50;;;;;;;16.10;68.59;101836.69;5035909;28;20045;-57
2022/06/15 06:21:43;;;;;;;13.02;7.45;;;;;;;16.16;68.02;101828.91;5039200;28;20419;-55
2022/06/15 06:24:08;;;;;;;11.75;7.07;;;;;;;16.18;68.11;101835.75;5036201;28;20428;-57
2022/06/15 06:26:35;;;;;;;12.52;7.13;;;;;;;16.24;67.72;101829.69;5039408;28;20564;-55
2022/06/15 06:29:00;;;;;;;11.68;6.60;;;;;;;16.30;67.88;101833.47;5037874;28;20460;-56
2022/06/15 06:31:27;;;;;;;11.85;7.03;;;;;;;16.40;67.37;101828.66;5041660;28;20033;-56
2022/06/15 06:33:53;;;;;;;14.43;7.57;;;;;;;16.42;67.26;101832.81;5048879;28;20025;-56
2022/06/15 06:36:36;;;;;;;16.65;7.43;;;;;;;16.49;66.37;101832.09;5041780;28;20030;-54
2022/06/15 06:39:05;;;;;;;13.63;7.55;;;;;;;16.57;66.72;101834.69;5038263;28;20028;-58
2022/06/15 06:41:31;;;;;;;14.48;6.93;;;;;;;16.63;66.19;101839.31;5042358;28;20032;-56
2022/06/15 06:43:59;;;;;;;9.82;6.38;;;;;;;16.70;66.00;101835.72;5040124;28;20037;-56
2022/06/15 06:46:24;;;;;;;12.07;7.28;;;;;;;16.79;65.90;101846.38;5041735;28;20095;-55
2022/06/15 06:48:50;;;;;;;11.98;6.47;;;;;;;16.85;65.34;101838.41;5043956;28;20025;-57
2022/06/15 06:51:15;;;;;;;14.18;6.28;;;;;;;16.93;65.18;101843.66;5045877;28;20489;-57
2022/06/15 06:53:41;;;;;;;10.98;6.00;;;;;;;16.99;65.00;101844.75;5043063;28;20043;-56
2022/06/15 06:56:09;;;;;;;13.32;6.20;;;;;;;17.09;64.59;101839.09;5049562;28;20029;-56
2022/06/15 06:58:35;;;;;;;14.75;6.18;;;;;;;17.15;64.23;101841.00;5049725;28;20033;-56
2022/06/15 07:01:00;;;;;;;11.98;6.30;;;;;;;17.19;63.80;101842.28;5047698;28;20120;-56
2022/06/15 07:03:26;;;;;;;13.63;6.30;;;;;;;17.24;63.84;101843.38;5048789;28;20112;-56
2022/06/15 07:05:51;;;;;;;10.65;5.70;;;;;;;17.32;63.30;101845.09;5043877;28;20052;-56
2022/06/15 07:08:17;;;;;;;15.13;5.80;;;;;;;17.36;63.12;101851.78;5036746;28;20711;-55
2022/06/15 07:10:43;;;;;;;12.40;5.75;;;;;;;17.45;62.79;101850.63;5038409;28;20029;-54
2022/06/15 07:13:09;;;;;;;12.48;5.85;;;;;;;17.52;63.24;101850.69;5042353;28;20500;-57
2022/06/15 07:15:35;;;;;;;10.40;5.30;;;;;;;17.64;62.78;101859.94;5036229;28;20120;-54
2022/06/15 07:18:01;;;;;;;11.48;5.20;;;;;;;17.71;62.47;101862.69;5040332;28;20535;-56
2022/06/15 07:20:29;;;;;;;9.35;5.07;;;;;;;17.81;62.44;101855.97;5046661;28;20530;-56
2022/06/15 07:22:55;;;;;;;13.35;5.22;;;;;;;17.88;62.32;101856.84;5049233;28;20408;-56
2022/06/15 07:25:21;;;;;;;12.30;4.95;;;;;;;17.95;61.92;101857.75;5048146;28;20074;-55
2022/06/15 07:27:46;;;;;;;10.68;4.90;;;;;;;17.98;61.68;101863.75;5046598;28;20032;-56
2022/06/15 07:30:15;;;;;;;8.60;4.93;;;;;;;18.06;61.27;101859.06;5046725;28;20060;-58
2022/06/15 07:32:41;;;;;;;12.02;5.30;;;;;;;18.15;61.31;101860.56;5046750;28;20418;-56
2022/06/15 07:35:13;;;;;;;13.15;4.68;;;;;;;18.20;61.31;101862.69;5040152;28;20031;-57
2022/06/15 07:37:39;;;;;;;10.38;4.53;;;;;;;18.27;61.02;101860.88;5037322;28;20032;-55
2022/06/15 07:40:05;;;;;;;10.23;4.10;;;;;;;18.35;60.60;101859.91;5044743;28;20024;-56
2022/06/15 07:42:30;;;;;;;10.70;4.00;;;;;;;18.40;59.75;101855.59;5049703;28;20091;-54
2022/06/15 07:44:55;;;;;;;13.32;4.85;;;;;;;18.50;60.21;101857.91;5043863;28;20028;-57
2022/06/15 07:50:05;;;;;;;16.23;6.00;;;;;;;18.65;60.45;101869.44;5044065;28;20035;-56
2022/06/15 07:52:36;;;;;;;14.02;5.47;;;;;;;18.71;60.19;101867.78;5053961;28;20129;-56
2022/06/15 07:55:04;;;;;;;13.85;5.65;;;;;;;18.74;59.90;101857.47;5047881;28;20029;-56
2022/06/15 07:57:29;;;;;;;15.95;5.90;;;;;;;18.79;59.78;101854.16;5054500;28;20033;-55
2022/06/15 07:59:54;;;;;;;10.98;4.60;;;;;;;18.87;60.06;101854.84;5046208;28;20079;-57
2022/06/15 08:02:20;;;;;;;11.40;4.70;;;;;;;18.96;59.87;101860.03;5045175;28;20079;-56
2022/06/15 08:04:45;;;;;;;9.10;4.40;;;;;;;19.01;59.33;101857.56;5047158;28;20017;-57
2022/06/15 08:07:13;;;;;;;7.25;3.78;;;;;;;19.12;58.75;101865.09;5048668;28;20025;-55
2022/06/15 08:09:39;;;;;;;9.73;3.53;;;;;;;19.17;58.03;101851.84;5060500;28;20021;-58
2022/06/15 08:12:11;;;;;;;11.90;3.90;;;;;;;19.25;57.92;101859.75;5042452;28;20025;-56
2022/06/15 08:14:40;;;;;;;11.23;3.55;;;;;;;19.36;57.29;101861.81;5052583;28;20032;-57
2022/06/15 08:17:13;;;;;;;11.57;3.60;;;;;;;19.43;56.85;101861.88;5053174;28;20021;-56
2022/06/15 08:19:43;;;;;;;12.60;3.78;;;;;;;19.52;56.35;101854.41;5055149;28;20009;-57
2022/06/15 08:22:10;;;;;;;10.18;3.60;;;;;;;19.60;56.26;101859.63;5046894;28;20455;-56
2022/06/15 08:24:37;;;;;;;8.70;3.58;;;;;;;19.68;55.81;101868.38;5044015;28;20654;-56
2022/06/15 08:27:03;;;;;;;11.02;3.30;;;;;;;19.89;55.48;101858.41;5042354;28;20073;-56
2022/06/15 08:29:29;;;;;;;11.18;3.15;;;;;;;19.98;55.35;101860.72;5045568;28;20396;-56
2022/06/15 08:31:57;;;;;;;10.43;3.42;;;;;;;20.05;54.51;101849.91;5041455;28;20033;-55
2022/06/15 08:34:24;;;;;;;10.07;3.00;;;;;;;20.17;54.35;101853.63;5052141;28;20511;-57
2022/06/15 08:36:50;;;;;;;8.85;3.35;;;;;;;20.30;53.95;101847.41;5047044;28;20025;-56
2022/06/15 08:39:15;;;;;;;9.05;3.10;;;;;;;20.40;53.22;101850.50;5047874;28;20024;-56
2022/06/15 08:42:05;;;;;;;10.15;3.22;;;;;;;20.56;53.11;101844.69;5039825;28;20037;-58
2022/06/15 08:45:15;;;;;;;11.02;3.50;;;;;;;20.69;52.72;101846.50;5038250;28;20113;-56
2022/06/15 08:48:19;;;;;;;10.95;3.25;;;;;;;20.81;51.87;101852.06;5038591;28;20043;-57
2022/06/15 08:50:54;;;;;;;9.25;3.22;;;;;;;21.01;50.82;101858.22;4960168;28;20064;-54
2022/06/15 08:53:24;;;;;;;10.75;3.65;;;;;;;21.16;51.21;101852.53;5044240;28;20403;-57
2022/06/15 08:55:59;;;;;;;7.95;3.30;;;;;;;21.25;50.62;101849.38;5043302;28;20358;-56
2022/06/15 08:58:41;;;;;;;8.43;2.90;;;;;;;21.46;50.25;101852.81;5043171;28;20370;-56
2022/06/15 09:01:19;;;;;;;9.07;3.38;;;;;;;21.67;49.51;101860.53;5042990;28;20432;-57
2022/06/15 09:04:25;;;;;;;9.93;3.13;;;;;;;21.87;48.83;101860.41;5039302;28;20059;-57
2022/06/15 09:07:06;;;;;;;8.70;3.20;;;;;;;21.98;48.30;101857.00;4948050;28;20499;-56
2022/06/15 09:09:50;;;;;;;11.18;3.10;;;;;;;22.15;48.46;101858.09;4935530;28;20075;-55
2022/06/15 09:13:00;;;;;;;7.25;2.63;;;;;;;22.30;47.44;101849.66;5011117;28;20037;-56
2022/06/15 09:15:50;;;;;;;6.85;2.80;;;;;;;22.44;47.47;101851.16;5020215;28;20051;-56
2022/06/15 09:18:36;;;;;;;10.45;3.42;;;;;;;22.45;46.74;101849.28;5041076;28;20108;-57
2022/06/15 09:21:10;;;;;;;7.78;2.90;;;;;;;22.65;46.72;101849.88;5037129;28;20171;-54
2022/06/15 09:23:55;;;;;;;7.10;3.00;;;;;;;22.82;46.23;101853.66;5038676;28;20067;-56
2022/06/15 09:26:29;;;;;;;9.27;2.95;;;;;;;23.00;46.05;101852.00;5038798;28;20033;-54
2022/06/15 09:29:10;;;;;;;7.28;2.45;;;;;;;23.09;45.21;101843.31;5044151;28;20028;-56
2022/06/15 09:31:42;;;;;;;7.80;2.72;;;;;;;23.22;45.30;101841.50;5039763;28;20109;-56
2022/06/15 09:34:13;;;;;;;13.32;3.00;;;;;;;23.33;44.52;101838.81;5038812;28;20560;-56
2022/06/15 09:36:48;;;;;;;7.13;2.60;;;;;;;23.52;44.22;101846.88;5037780;28;20029;-56
2022/06/15 09:39:15;;;;;;;8.45;2.67;;;;;;;23.62;44.25;101839.03;5044001;28;20523;-53
2022/06/15 09:42:13;;;;;;;8.93;3.05;;;;;;;23.67;43.94;101844.56;5046906;28;20108;-57
2022/06/15 09:44:57;;;;;;;9.77;2.80;;;;;;;23.70;43.34;101844.94;5046219;28;20075;-57
2022/06/15 09:47:39;;;;;;;8.10;2.50;;;;;;;23.89;43.58;101853.00;5045531;28;20032;-57
2022/06/15 09:50:18;;;;;;;8.18;2.72;;;;;;;23.99;43.66;101853.22;5041398;28;20452;-57
2022/06/15 09:52:59;;;;;;;9.80;2.88;;;;;;;24.07;43.25;101844.75;5040026;28;20032;-57
2022/06/15 09:55:46;;;;;;;6.05;2.60;;;;;;;24.23;42.45;101851.34;5045337;28;20036;-57
2022/06/15 09:58:16;;;;;;;9.07;2.88;;;;;;;24.23;42.41;101849.47;5041611;28;20462;-55
2022/06/15 10:00:43;;;;;;;7.70;2.60;;;;;;;24.37;41.87;101845.47;5040810;28;20017;-57
2022/06/15 10:03:37;;;;;;;7.25;2.50;;;;;;;24.57;42.33;101846.97;5049441;28;20519;-58
2022/06/15 10:06:15;;;;;;;8.88;2.90;;;;;;;24.71;42.23;101842.94;5035712;28;20041;-57
2022/06/15 10:08:40;;;;;;;10.68;3.03;;;;;;;24.68;41.28;101836.09;5040218;28;20027;-55
2022/06/15 10:11:14;;;;;;;8.18;2.97;;;;;;;24.78;41.24;101832.75;5038899;28;20104;-55
2022/06/15 10:13:40;;;;;;;5.88;2.30;;;;;;;24.82;40.71;101841.25;5043301;28;20020;-55
2022/06/15 10:16:14;;;;;;;6.65;2.63;;;;;;;24.61;40.00;101840.03;5042213;28;20401;-57
2022/06/15 10:18:46;;;;;;;12.00;2.88;;;;;;;24.68;40.90;101835.28;5045005;28;20040;-54
2022/06/15 10:21:14;;;;;;;9.85;3.13;;;;;;;24.45;39.98;101835.31;5049365;28;20026;-54
2022/06/15 10:24:03;;;;;;;9.37;3.10;;;;;;;24.50;40.51;101821.84;5057980;28;20031;-57
2022/06/15 10:26:45;;;;;;;7.85;2.95;;;;;;;24.57;41.35;101833.38;5050451;28;20312;-56
2022/06/15 10:29:22;;;;;;;12.77;3.08;;;;;;;24.68;40.97;101835.28;5050430;28;20059;-55
2022/06/15 10:32:05;;;;;;;8.57;2.60;;;;;;;24.71;40.71;101834.78;5053329;28;20111;-56
2022/06/15 10:34:34;;;;;;;8.23;3.03;;;;;;;24.45;39.92;101829.88;5040128;28;20025;-56
2022/06/15 10:37:05;;;;;;;9.43;3.22;;;;;;;24.50;41.38;101833.53;5041903;28;20722;-56
2022/06/15 10:39:33;;;;;;;9.63;2.90;;;;;;;24.58;41.08;101830.47;5042726;28;20112;-57
2022/06/15 10:42:05;;;;;;;9.38;3.25;;;;;;;24.58;40.52;101832.34;5047558;28;20057;-56
2022/06/15 10:44:34;;;;;;;9.77;3.33;;;;;;;24.82;41.63;101824.94;5047506;28;20633;-55
2022/06/15 10:47:01;;;;;;;6.88;2.70;;;;;;;25.01;41.54;101829.16;5036608;28;20029;-56
2022/06/15 10:49:30;;;;;;;7.35;2.63;;;;;;;25.18;41.29;101834.66;5037868;28;20400;-57
2022/06/15 10:51:56;;;;;;;7.07;2.85;;;;;;;25.19;40.75;101826.25;5042346;28;20101;-55
2022/06/15 11:03:22;;;;;;;11.75;3.00;;;;;;;25.68;41.29;101820.31;5046558;28;20094;-56
2022/06/15 11:05:51;;;;;;;16.58;3.70;;;;;;;25.78;41.81;101821.31;5047024;28;20029;-58
2022/06/15 11:08:22;;;;;;;;;;;;;;;25.88;40.31;101821.47;5057895;28;20029;-57
2022/06/15 11:10:50;;;;;;;10.55;3.47;;;;;;;25.42;38.58;101817.13;5049829;28;20377;-57
2022/06/15 11:13:36;;;;;;;8.55;3.33;;;;;;;25.25;38.36;101817.13;5048398;28;20025;-56
2022/06/15 11:19:13;;;;;;;7.97;3.00;;;;;;;25.40;39.98;101813.00;5056485;28;20550;-57
2022/06/15 11:21:48;;;;;;;10.63;3.38;;;;;;;25.31;39.46;101812.59;5048316;28;20100;-57
2022/06/15 11:24:48;;;;;;;8.93;2.83;;;;;;;25.37;39.67;101813.50;5047807;28;20029;-57
2022/06/15 11:27:23;;;;;;;9.10;3.50;;;;;;;25.51;40.44;101814.84;5036566;28;20179;-56
2022/06/15 11:29:54;;;;;;;8.50;3.25;;;;;;;25.69;40.56;101811.91;5043593;28;20534;-57
2022/06/15 11:32:45;;;;;;;9.23;3.25;;;;;;;25.64;39.02;101812.63;5047581;28;20040;-57
2022/06/15 11:35:13;;;;;;;10.70;2.90;;;;;;;25.73;39.83;101804.88;5050124;28;20020;-56
2022/06/15 11:37:57;;;;;;;11.18;3.58;;;;;;;25.77;38.82;101810.69;5053532;28;20059;-56
2022/06/15 11:40:28;;;;;;;12.98;3.50;;;;;;;25.46;37.93;101815.59;5050629;28;20108;-57
2022/06/15 11:42:53;;;;;;;9.70;3.10;;;;;;;25.83;39.62;101817.84;5047954;28;20521;-57
2022/06/15 11:45:30;;;;;;;8.48;3.40;;;;;;;25.99;38.74;101819.72;5055084;28;20107;-56
2022/06/15 11:48:10;;;;;;;8.20;3.15;;;;;;;26.14;39.19;101817.22;5055247;28;20044;-57
2022/06/15 11:50:58;;;;;;;11.18;3.22;;;;;;;26.20;39.52;101815.41;5050660;28;20021;-57
2022/06/15 11:53:52;;;;;;;9.60;3.10;;;;;;;26.19;39.52;101811.84;5048173;28;20029;-56
2022/06/15 11:56:19;;;;;;;8.63;3.05;;;;;;;25.81;38.44;101812.66;5046442;28;20248;-57
2022/06/15 11:58:54;;;;;;;7.70;2.75;;;;;;;25.63;37.64;101800.09;5048015;28;20276;-57
2022/06/15 12:01:41;;;;;;;11.35;2.90;;;;;;;25.76;38.77;101809.03;5046000;28;20032;-56
2022/06/15 12:04:34;;;;;;;9.10;3.00;;;;;;;25.91;39.17;101801.91;5048185;28;20173;-57
2022/06/15 12:07:13;;;;;;;8.95;3.10;;;;;;;26.17;39.93;101805.00;5052356;28;20087;-56
2022/06/15 12:09:50;;;;;;;6.45;3.10;;;;;;;26.30;39.03;101798.38;5044620;28;20020;-56
2022/06/15 12:12:39;;;;;;;8.70;3.10;;;;;;;26.28;38.78;101801.34;5045260;28;20074;-56
2022/06/15 12:15:04;;;;;;;9.23;3.00;;;;;;;26.40;39.37;101787.66;5050493;28;20108;-56
2022/06/15 12:17:46;;;;;;;9.97;3.50;;;;;;;26.39;38.74;101796.91;5053556;28;20124;-57